sensor_id;sensor_type;location;lat;lon;timestamp;pressure;altitude;pressure_sealevel;temperature;humidity
24892;BME280;12954;50.688;10.908;2023-03-13T00:02:05;94805.81;;;5.18;65.70
24892;BME280;12954;50.688;10.908;2023-03-13T00:04:35;94799.38;;;5.14;66.32
24892;BME280;12954;50.688;10.908;2023-03-13T00:07:04;94796.72;;;5.24;65.89
24892;BME280;12954;50.688;10.908;2023-03-13T00:09:33;94787.91;;;5.24;65.95
24892;BME280;12954;50.688;10.908;2023-03-13T00:12:01;94790.03;;;5.52;64.47
24892;BME280;12954;50.688;10.908;2023-03-13T00:14:29;94773.19;;;5.46;64.49
24892;BME280;12954;50.688;10.908;2023-03-13T00:16:57;94784.72;;;5.42;64.48
24892;BME280;12954;50.688;10.908;2023-03-13T00:19:26;94764.38;;;5.46;64.58
24892;BME280;12954;50.688;10.908;2023-03-13T00:21:56;94780.13;;;5.42;64.37
24892;BME280;12954;50.688;10.908;2023-03-13T00:24:25;94791.66;;;5.38;64.59
24892;BME280;12954;50.688;10.908;2023-03-13T00:26:54;94800.22;;;5.55;63.78
24892;BME280;12954;50.688;10.908;2023-03-13T00:29:24;94778.81;;;5.35;64.44
24892;BME280;12954;50.688;10.908;2023-03-13T00:31:52;94776.91;;;5.25;64.89
24892;BME280;12954;50.688;10.908;2023-03-13T00:34:20;94778.00;;;5.24;64.84
24892;BME280;12954;50.688;10.908;2023-03-13T00:36:49;94713.78;;;4.84;64.95
24892;BME280;12954;50.688;10.908;2023-03-13T00:39:19;94753.13;;;5.24;64.95
24892;BME280;12954;50.688;10.908;2023-03-13T00:41:48;94771.56;;;5.20;65.26
24892;BME280;12954;50.688;10.908;2023-03-13T00:44:16;94745.38;;;5.32;64.91
24892;BME280;12954;50.688;10.908;2023-03-13T00:46:45;94746.97;;;5.43;64.22
24892;BME280;12954;50.688;10.908;2023-03-13T00:49:14;94740.56;;;5.39;64.70
24892;BME280;12954;50.688;10.908;2023-03-13T00:51:42;94745.88;;;5.75;63.26
24892;BME280;12954;50.688;10.908;2023-03-13T00:54:10;94739.47;;;5.61;63.72
24892;BME280;12954;50.688;10.908;2023-03-13T00:56:40;94726.91;;;5.46;64.37
24892;BME280;12954;50.688;10.908;2023-03-13T00:59:08;94742.19;;;5.35;64.78
24892;BME280;12954;50.688;10.908;2023-03-13T01:01:37;94736.81;;;5.35;64.78
24892;BME280;12954;50.688;10.908;2023-03-13T01:04:07;94736.81;;;5.45;64.34
24892;BME280;12954;50.688;10.908;2023-03-13T01:06:37;94752.09;;;5.45;64.49
24892;BME280;12954;50.688;10.908;2023-03-13T01:09:10;94742.69;;;5.42;64.63
24892;BME280;12954;50.688;10.908;2023-03-13T01:11:42;94745.38;;;5.52;64.32
24892;BME280;12954;50.688;10.908;2023-03-13T01:14:13;94736.28;;;5.48;64.59
24892;BME280;12954;50.688;10.908;2023-03-13T01:16:42;94727.19;;;5.39;64.89
24892;BME280;12954;50.688;10.908;2023-03-13T01:19:12;94733.59;;;5.64;64.56
24892;BME280;12954;50.688;10.908;2023-03-13T01:21:42;94731.22;;;5.42;64.81
24892;BME280;12954;50.688;10.908;2023-03-13T01:24:11;94732.53;;;5.39;64.91
24892;BME280;12954;50.688;10.908;2023-03-13T01:26:41;94756.06;;;5.37;65.47
24892;BME280;12954;50.688;10.908;2023-03-13T01:29:09;94741.66;;;5.53;64.71
24892;BME280;12954;50.688;10.908;2023-03-13T01:31:37;94756.38;;;5.51;64.73
24892;BME280;12954;50.688;10.908;2023-03-13T01:34:06;94721.59;;;5.51;63.99
24892;BME280;12954;50.688;10.908;2023-03-13T01:36:35;94754.19;;;5.43;64.63
24892;BME280;12954;50.688;10.908;2023-03-13T01:39:04;94759.81;;;5.77;63.87
24892;BME280;12954;50.688;10.908;2023-03-13T01:41:33;94770.00;;;5.60;64.49
24892;BME280;12954;50.688;10.908;2023-03-13T01:44:03;94627.75;;;4.77;65.13
24892;BME280;12954;50.688;10.908;2023-03-13T01:46:31;94740.81;;;5.58;64.86
24892;BME280;12954;50.688;10.908;2023-03-13T01:49:02;94741.09;;;5.41;65.46
24892;BME280;12954;50.688;10.908;2023-03-13T01:51:34;94714.88;;;5.28;65.39
24892;BME280;12954;50.688;10.908;2023-03-13T01:54:07;94730.16;;;5.48;65.26
24892;BME280;12954;50.688;10.908;2023-03-13T01:56:41;94689.75;;;5.29;65.12
24892;BME280;12954;50.688;10.908;2023-03-13T01:59:13;94723.72;;;5.34;65.19
24892;BME280;12954;50.688;10.908;2023-03-13T02:01:43;94740.31;;;5.41;65.87
24892;BME280;12954;50.688;10.908;2023-03-13T02:04:14;94728.78;;;5.40;65.92
24892;BME280;12954;50.688;10.908;2023-03-13T02:06:47;94715.16;;;5.37;65.75
24892;BME280;12954;50.688;10.908;2023-03-13T02:09:20;94697.25;;;5.32;65.77
24892;BME280;12954;50.688;10.908;2023-03-13T02:11:54;94723.97;;;5.42;65.77
24892;BME280;12954;50.688;10.908;2023-03-13T02:14:27;94710.34;;;5.39;65.89
24892;BME280;12954;50.688;10.908;2023-03-13T02:16:57;94717.06;;;5.36;66.44
24892;BME280;12954;50.688;10.908;2023-03-13T02:19:29;94713.56;;;5.36;66.29
24892;BME280;12954;50.688;10.908;2023-03-13T02:22:03;94711.69;;;5.31;66.64
24892;BME280;12954;50.688;10.908;2023-03-13T02:24:38;94674.25;;;4.96;66.87
24892;BME280;12954;50.688;10.908;2023-03-13T02:27:11;94696.47;;;5.27;66.94
24892;BME280;12954;50.688;10.908;2023-03-13T02:29:40;94690.84;;;5.18;67.29
24892;BME280;12954;50.688;10.908;2023-03-13T02:32:08;94687.34;;;5.28;67.34
24892;BME280;12954;50.688;10.908;2023-03-13T02:34:38;94672.38;;;5.37;66.90
24892;BME280;12954;50.688;10.908;2023-03-13T02:37:07;94679.63;;;5.36;66.80
24892;BME280;12954;50.688;10.908;2023-03-13T02:39:41;94677.97;;;5.45;66.50
24892;BME280;12954;50.688;10.908;2023-03-13T02:42:14;94680.94;;;5.39;66.84
24892;BME280;12954;50.688;10.908;2023-03-13T02:44:45;94613.84;;;5.15;66.70
24892;BME280;12954;50.688;10.908;2023-03-13T02:47:17;94673.16;;;5.47;66.72
24892;BME280;12954;50.688;10.908;2023-03-13T02:49:46;94650.41;;;5.55;66.42
24892;BME280;12954;50.688;10.908;2023-03-13T02:52:17;94675.59;;;5.44;66.91
24892;BME280;12954;50.688;10.908;2023-03-13T02:54:49;94657.66;;;5.49;66.71
24892;BME280;12954;50.688;10.908;2023-03-13T02:57:20;94669.66;;;5.62;66.05
24892;BME280;12954;50.688;10.908;2023-03-13T02:59:48;94659.75;;;5.68;66.01
24892;BME280;12954;50.688;10.908;2023-03-13T03:02:17;94653.06;;;5.65;65.98
24892;BME280;12954;50.688;10.908;2023-03-13T03:04:45;94653.63;;;5.52;66.71
24892;BME280;12954;50.688;10.908;2023-03-13T03:07:13;94646.66;;;5.56;66.31
24892;BME280;12954;50.688;10.908;2023-03-13T03:09:42;94625.56;;;5.34;66.37
24892;BME280;12954;50.688;10.908;2023-03-13T03:12:10;94644.78;;;5.51;66.70
24892;BME280;12954;50.688;10.908;2023-03-13T03:14:40;94647.97;;;5.64;66.18
24892;BME280;12954;50.688;10.908;2023-03-13T03:17:08;94645.88;;;5.45;66.90
24892;BME280;12954;50.688;10.908;2023-03-13T03:19:37;94638.94;;;5.44;67.09
24892;BME280;12954;50.688;10.908;2023-03-13T03:22:05;94630.91;;;5.49;66.99
24892;BME280;12954;50.688;10.908;2023-03-13T03:24:33;94630.34;;;5.52;66.93
24892;BME280;12954;50.688;10.908;2023-03-13T03:27:02;94618.59;;;5.48;67.08
24892;BME280;12954;50.688;10.908;2023-03-13T03:29:30;94612.19;;;5.39;67.55
24892;BME280;12954;50.688;10.908;2023-03-13T03:32:00;94610.59;;;5.43;67.08
24892;BME280;12954;50.688;10.908;2023-03-13T03:34:28;94606.84;;;5.39;67.54
24892;BME280;12954;50.688;10.908;2023-03-13T03:36:57;94594.81;;;5.42;67.45
24892;BME280;12954;50.688;10.908;2023-03-13T03:39:25;94586.50;;;5.48;67.25
24892;BME280;12954;50.688;10.908;2023-03-13T03:41:53;94595.63;;;5.37;67.73
24892;BME280;12954;50.688;10.908;2023-03-13T03:44:22;94566.22;;;5.37;67.74
24892;BME280;12954;50.688;10.908;2023-03-13T03:46:50;94581.72;;;5.40;67.65
24892;BME280;12954;50.688;10.908;2023-03-13T03:49:20;94571.00;;;5.40;67.60
24892;BME280;12954;50.688;10.908;2023-03-13T03:51:49;94495.97;;;5.12;66.98
24892;BME280;12954;50.688;10.908;2023-03-13T03:54:17;94547.44;;;5.52;67.03
24892;BME280;12954;50.688;10.908;2023-03-13T03:56:46;94506.06;;;5.35;67.10
24892;BME280;12954;50.688;10.908;2023-03-13T03:59:14;94547.41;;;5.57;66.69
24892;BME280;12954;50.688;10.908;2023-03-13T04:01:42;94542.09;;;5.52;66.77
24892;BME280;12954;50.688;10.908;2023-03-13T04:04:11;94547.47;;;5.47;67.19
24892;BME280;12954;50.688;10.908;2023-03-13T04:06:41;94530.88;;;5.50;67.19
24892;BME280;12954;50.688;10.908;2023-03-13T04:09:09;94523.59;;;5.61;66.88
24892;BME280;12954;50.688;10.908;2023-03-13T04:11:38;94534.59;;;5.54;67.15
24892;BME280;12954;50.688;10.908;2023-03-13T04:14:06;94505.97;;;5.55;66.87
24892;BME280;12954;50.688;10.908;2023-03-13T04:16:35;94498.72;;;5.61;66.98
24892;BME280;12954;50.688;10.908;2023-03-13T04:19:03;94498.97;;;5.64;66.54
24892;BME280;12954;50.688;10.908;2023-03-13T04:21:32;94486.97;;;5.56;66.82
24892;BME280;12954;50.688;10.908;2023-03-13T04:24:02;94410.69;;;5.10;66.88
24892;BME280;12954;50.688;10.908;2023-03-13T04:26:30;94481.63;;;5.56;66.75
24892;BME280;12954;50.688;10.908;2023-03-13T04:28:59;94473.34;;;5.53;66.80
24892;BME280;12954;50.688;10.908;2023-03-13T04:31:27;94485.88;;;5.63;66.69
24892;BME280;12954;50.688;10.908;2023-03-13T04:33:56;94478.94;;;5.62;66.54
24892;BME280;12954;50.688;10.908;2023-03-13T04:36:24;94473.31;;;5.58;66.84
24892;BME280;12954;50.688;10.908;2023-03-13T04:38:52;94465.03;;;5.54;66.87
24892;BME280;12954;50.688;10.908;2023-03-13T04:41:22;94487.75;;;5.57;66.67
24892;BME280;12954;50.688;10.908;2023-03-13T04:43:51;94473.34;;;5.53;66.93
24892;BME280;12954;50.688;10.908;2023-03-13T04:46:19;94468.75;;;5.64;66.43
24892;BME280;12954;50.688;10.908;2023-03-13T04:48:48;94478.41;;;5.60;66.68
24892;BME280;12954;50.688;10.908;2023-03-13T04:51:16;94462.91;;;5.56;66.84
24892;BME280;12954;50.688;10.908;2023-03-13T04:53:44;94429.78;;;5.47;67.36
24892;BME280;12954;50.688;10.908;2023-03-13T04:56:20;94441.56;;;5.46;67.27
24892;BME280;12954;50.688;10.908;2023-03-13T04:59:10;94386.59;;;5.20;67.60
24892;BME280;12954;50.688;10.908;2023-03-13T05:01:39;94421.50;;;5.44;67.75
24892;BME280;12954;50.688;10.908;2023-03-13T05:04:08;94413.22;;;5.40;67.96
24892;BME280;12954;50.688;10.908;2023-03-13T05:06:36;94414.97;;;5.60;67.50
24892;BME280;12954;50.688;10.908;2023-03-13T05:09:05;94395.53;;;5.49;67.70
24892;BME280;12954;50.688;10.908;2023-03-13T05:11:34;94400.06;;;5.49;68.03
24892;BME280;12954;50.688;10.908;2023-03-13T05:14:02;94393.19;;;5.38;68.16
24892;BME280;12954;50.688;10.908;2023-03-13T05:16:32;94403.31;;;5.46;68.49
24892;BME280;12954;50.688;10.908;2023-03-13T05:19:01;94394.97;;;5.52;68.17
24892;BME280;12954;50.688;10.908;2023-03-13T05:21:29;94394.25;;;5.42;68.74
24892;BME280;12954;50.688;10.908;2023-03-13T05:23:57;94376.88;;;5.39;68.89
24892;BME280;12954;50.688;10.908;2023-03-13T05:26:26;94301.78;;;4.87;69.57
24892;BME280;12954;50.688;10.908;2023-03-13T05:28:54;94375.88;;;5.25;69.64
24892;BME280;12954;50.688;10.908;2023-03-13T05:31:22;94354.44;;;5.35;69.40
24892;BME280;12954;50.688;10.908;2023-03-13T05:33:52;94371.03;;;5.32;69.44
24892;BME280;12954;50.688;10.908;2023-03-13T05:36:20;94341.06;;;5.35;69.28
24892;BME280;12954;50.688;10.908;2023-03-13T05:38:49;94346.97;;;5.32;69.67
24892;BME280;12954;50.688;10.908;2023-03-13T05:41:17;94324.94;;;5.45;69.64
24892;BME280;12954;50.688;10.908;2023-03-13T05:43:46;94112.09;;;4.04;69.63
24892;BME280;12954;50.688;10.908;2023-03-13T05:46:14;94324.88;;;5.55;69.94
24892;BME280;12954;50.688;10.908;2023-03-13T05:48:42;94281.25;;;5.26;69.90
24892;BME280;12954;50.688;10.908;2023-03-13T05:51:14;94289.50;;;5.64;69.95
24892;BME280;12954;50.688;10.908;2023-03-13T05:53:42;94274.69;;;5.76;69.35
24892;BME280;12954;50.688;10.908;2023-03-13T05:56:10;94311.84;;;5.78;69.14
24892;BME280;12954;50.688;10.908;2023-03-13T05:58:39;94289.34;;;5.50;69.74
24892;BME280;12954;50.688;10.908;2023-03-13T06:01:08;94311.84;;;5.78;69.49
24892;BME280;12954;50.688;10.908;2023-03-13T06:03:36;94312.97;;;5.72;69.63
24892;BME280;12954;50.688;10.908;2023-03-13T06:06:05;94326.88;;;5.74;69.90
24892;BME280;12954;50.688;10.908;2023-03-13T06:08:35;94332.34;;;5.58;70.46
24892;BME280;12954;50.688;10.908;2023-03-13T06:11:04;94294.84;;;5.64;70.25
24892;BME280;12954;50.688;10.908;2023-03-13T06:13:32;94341.50;;;5.52;70.93
24892;BME280;12954;50.688;10.908;2023-03-13T06:16:01;94305.88;;;5.57;70.74
24892;BME280;12954;50.688;10.908;2023-03-13T06:18:32;94283.13;;;5.60;70.95
24892;BME280;12954;50.688;10.908;2023-03-13T06:21:02;94283.59;;;5.67;70.95
24892;BME280;12954;50.688;10.908;2023-03-13T06:23:30;94323.13;;;5.75;70.84
24892;BME280;12954;50.688;10.908;2023-03-13T06:26:00;94304.72;;;5.68;71.20
24892;BME280;12954;50.688;10.908;2023-03-13T06:28:28;94301.97;;;5.78;70.89
24892;BME280;12954;50.688;10.908;2023-03-13T06:31:00;94281.13;;;5.41;71.22
24892;BME280;12954;50.688;10.908;2023-03-13T06:33:29;94294.97;;;5.53;71.33
24892;BME280;12954;50.688;10.908;2023-03-13T06:35:59;94323.13;;;5.75;71.35
24892;BME280;12954;50.688;10.908;2023-03-13T06:38:28;94314.81;;;5.76;71.17
24892;BME280;12954;50.688;10.908;2023-03-13T06:40:57;94278.41;;;5.46;71.68
24892;BME280;12954;50.688;10.908;2023-03-13T06:43:27;94346.69;;;5.73;71.55
24892;BME280;12954;50.688;10.908;2023-03-13T06:46:01;94346.78;;;5.63;72.12
24892;BME280;12954;50.688;10.908;2023-03-13T06:48:29;94357.44;;;5.68;72.39
24892;BME280;12954;50.688;10.908;2023-03-13T06:50:58;94333.97;;;5.54;72.42
24892;BME280;12954;50.688;10.908;2023-03-13T06:53:27;94306.78;;;5.47;72.07
24892;BME280;12954;50.688;10.908;2023-03-13T06:55:55;94327.22;;;5.96;71.49
24892;BME280;12954;50.688;10.908;2023-03-13T06:58:29;94335.13;;;5.82;72.00
24892;BME280;12954;50.688;10.908;2023-03-13T07:00:58;94330.22;;;5.89;72.30
24892;BME280;12954;50.688;10.908;2023-03-13T07:03:27;94329.59;;;6.02;71.91
24892;BME280;12954;50.688;10.908;2023-03-13T07:05:56;94315.78;;;5.90;72.28
24892;BME280;12954;50.688;10.908;2023-03-13T07:08:24;94292.34;;;6.06;72.24
24892;BME280;12954;50.688;10.908;2023-03-13T07:10:56;94311.97;;;6.25;71.22
24892;BME280;12954;50.688;10.908;2023-03-13T07:13:25;94267.84;;;5.94;71.58
24892;BME280;12954;50.688;10.908;2023-03-13T07:15:58;94288.97;;;6.24;71.16
24892;BME280;12954;50.688;10.908;2023-03-13T07:18:26;94273.13;;;6.28;71.44
24892;BME280;12954;50.688;10.908;2023-03-13T07:20:57;94296.97;;;6.29;71.75
24892;BME280;12954;50.688;10.908;2023-03-13T07:23:27;94273.34;;;6.31;71.64
24892;BME280;12954;50.688;10.908;2023-03-13T07:25:57;94307.53;;;6.39;71.35
24892;BME280;12954;50.688;10.908;2023-03-13T07:28:27;94310.75;;;6.41;71.55
24892;BME280;12954;50.688;10.908;2023-03-13T07:31:04;94302.53;;;6.33;72.08
24892;BME280;12954;50.688;10.908;2023-03-13T07:33:33;94275.06;;;6.46;71.41
24892;BME280;12954;50.688;10.908;2023-03-13T07:36:02;94288.78;;;6.39;71.70
24892;BME280;12954;50.688;10.908;2023-03-13T07:38:31;94271.22;;;6.76;70.34
24892;BME280;12954;50.688;10.908;2023-03-13T07:40:59;94289.94;;;6.57;70.99
24892;BME280;12954;50.688;10.908;2023-03-13T07:43:27;94293.06;;;6.40;71.60
24892;BME280;12954;50.688;10.908;2023-03-13T07:45:58;94304.25;;;6.47;71.86
24892;BME280;12954;50.688;10.908;2023-03-13T07:48:30;94333.09;;;6.55;71.51
24892;BME280;12954;50.688;10.908;2023-03-13T07:50:59;94329.91;;;6.53;71.62
24892;BME280;12954;50.688;10.908;2023-03-13T07:53:28;94286.75;;;6.31;72.15
24892;BME280;12954;50.688;10.908;2023-03-13T07:55:58;94279.63;;;6.45;72.26
24892;BME280;12954;50.688;10.908;2023-03-13T07:58:29;94326.88;;;6.60;71.45
24892;BME280;12954;50.688;10.908;2023-03-13T08:00:58;94296.63;;;6.59;71.94
24892;BME280;12954;50.688;10.908;2023-03-13T08:03:26;94282.50;;;6.73;71.57
24892;BME280;12954;50.688;10.908;2023-03-13T08:06:02;94309.72;;;6.61;71.94
24892;BME280;12954;50.688;10.908;2023-03-13T08:08:31;94331.97;;;6.61;72.55
24892;BME280;12954;50.688;10.908;2023-03-13T08:11:00;94318.06;;;6.59;72.79
24892;BME280;12954;50.688;10.908;2023-03-13T08:13:29;94315.88;;;6.61;72.99
24892;BME280;12954;50.688;10.908;2023-03-13T08:16:04;94299.66;;;6.72;72.47
24892;BME280;12954;50.688;10.908;2023-03-13T08:18:34;94332.47;;;6.63;73.05
24892;BME280;12954;50.688;10.908;2023-03-13T08:21:06;94325.69;;;6.71;72.99
24892;BME280;12954;50.688;10.908;2023-03-13T08:23:35;94311.50;;;6.71;72.93
24892;BME280;12954;50.688;10.908;2023-03-13T08:26:06;94304.81;;;6.68;72.66
24892;BME280;12954;50.688;10.908;2023-03-13T08:28:35;94200.78;;;6.33;72.36
24892;BME280;12954;50.688;10.908;2023-03-13T08:31:08;94296.81;;;6.87;72.50
24892;BME280;12954;50.688;10.908;2023-03-13T08:33:38;94313.53;;;6.79;73.01
24892;BME280;12954;50.688;10.908;2023-03-13T08:36:15;94286.31;;;6.90;72.60
24892;BME280;12954;50.688;10.908;2023-03-13T08:38:45;94284.69;;;6.89;72.68
24892;BME280;12954;50.688;10.908;2023-03-13T08:41:16;94300.38;;;7.01;72.30
24892;BME280;12954;50.688;10.908;2023-03-13T08:43:46;94303.94;;;6.96;72.34
24892;BME280;12954;50.688;10.908;2023-03-13T08:46:15;94306.25;;;7.03;72.42
24892;BME280;12954;50.688;10.908;2023-03-13T08:48:48;94294.09;;;6.92;73.20
24892;BME280;12954;50.688;10.908;2023-03-13T08:51:20;94302.28;;;7.00;73.01
24892;BME280;12954;50.688;10.908;2023-03-13T08:53:49;94318.06;;;7.02;73.27
24892;BME280;12954;50.688;10.908;2023-03-13T08:56:19;94247.28;;;7.03;72.83
24892;BME280;12954;50.688;10.908;2023-03-13T08:58:49;94311.56;;;7.27;72.34
24892;BME280;12954;50.688;10.908;2023-03-13T09:01:19;94275.41;;;7.24;72.98
24892;BME280;12954;50.688;10.908;2023-03-13T09:03:47;94297.34;;;7.26;73.08
24892;BME280;12954;50.688;10.908;2023-03-13T09:06:17;94317.44;;;7.29;73.33
24892;BME280;12954;50.688;10.908;2023-03-13T09:08:46;94312.28;;;7.32;73.35
24892;BME280;12954;50.688;10.908;2023-03-13T09:11:17;94296.22;;;6.90;73.89
24892;BME280;12954;50.688;10.908;2023-03-13T09:13:47;94332.91;;;7.13;74.15
24892;BME280;12954;50.688;10.908;2023-03-13T09:16:17;94329.03;;;7.24;73.75
24892;BME280;12954;50.688;10.908;2023-03-13T09:18:46;94340.91;;;7.18;74.20
24892;BME280;12954;50.688;10.908;2023-03-13T09:21:16;94331.78;;;7.19;73.92
24892;BME280;12954;50.688;10.908;2023-03-13T09:23:48;94345.94;;;7.01;74.58
24892;BME280;12954;50.688;10.908;2023-03-13T09:26:18;94353.78;;;7.16;74.41
24892;BME280;12954;50.688;10.908;2023-03-13T09:28:49;94348.09;;;7.22;74.19
24892;BME280;12954;50.688;10.908;2023-03-13T09:31:19;94362.00;;;7.24;74.24
24892;BME280;12954;50.688;10.908;2023-03-13T09:33:49;94350.13;;;7.31;73.98
24892;BME280;12954;50.688;10.908;2023-03-13T09:36:18;94352.53;;;7.32;73.99
24892;BME280;12954;50.688;10.908;2023-03-13T09:38:50;94338.72;;;7.20;74.11
24892;BME280;12954;50.688;10.908;2023-03-13T09:41:23;94362.69;;;7.35;74.20
24892;BME280;12954;50.688;10.908;2023-03-13T09:43:57;94327.44;;;7.23;74.04
24892;BME280;12954;50.688;10.908;2023-03-13T09:46:32;94346.41;;;7.45;73.99
24892;BME280;12954;50.688;10.908;2023-03-13T09:49:09;94246.97;;;6.86;74.17
24892;BME280;12954;50.688;10.908;2023-03-13T09:51:44;94344.41;;;7.56;73.98
24892;BME280;12954;50.688;10.908;2023-03-13T09:54:22;94325.84;;;7.59;73.97
24892;BME280;12954;50.688;10.908;2023-03-13T09:56:55;94319.28;;;7.65;73.98
24892;BME280;12954;50.688;10.908;2023-03-13T09:59:28;94298.28;;;7.72;73.98
24892;BME280;12954;50.688;10.908;2023-03-13T10:02:03;94307.69;;;7.89;73.50
24892;BME280;12954;50.688;10.908;2023-03-13T10:04:37;94307.81;;;7.97;73.48
24892;BME280;12954;50.688;10.908;2023-03-13T10:07:10;94318.94;;;7.91;74.01
24892;BME280;12954;50.688;10.908;2023-03-13T10:09:40;94320.66;;;8.00;73.80
24892;BME280;12954;50.688;10.908;2023-03-13T10:12:12;94334.44;;;7.94;74.47
24892;BME280;12954;50.688;10.908;2023-03-13T10:14:59;94297.44;;;7.91;74.90
24892;BME280;12954;50.688;10.908;2023-03-13T10:17:33;94292.78;;;7.96;74.83
24892;BME280;12954;50.688;10.908;2023-03-13T10:20:15;94294.00;;;8.04;74.76
24892;BME280;12954;50.688;10.908;2023-03-13T10:22:45;94280.44;;;8.41;73.28
24892;BME280;12954;50.688;10.908;2023-03-13T10:25:28;94253.94;;;8.34;74.05
24892;BME280;12954;50.688;10.908;2023-03-13T10:27:57;94252.66;;;8.32;74.56
24892;BME280;12954;50.688;10.908;2023-03-13T10:30:29;94235.72;;;8.45;73.81
24892;BME280;12954;50.688;10.908;2023-03-13T10:33:15;94253.06;;;8.66;73.93
24892;BME280;12954;50.688;10.908;2023-03-13T10:35:45;94230.81;;;8.88;73.77
24892;BME280;12954;50.688;10.908;2023-03-13T10:38:16;94254.81;;;8.84;73.49
24892;BME280;12954;50.688;10.908;2023-03-13T10:40:55;94248.06;;;8.73;72.83
24892;BME280;12954;50.688;10.908;2023-03-13T10:43:25;94237.84;;;8.98;73.17
24892;BME280;12954;50.688;10.908;2023-03-13T10:45:54;94208.88;;;8.94;72.69
24892;BME280;12954;50.688;10.908;2023-03-13T10:48:25;94250.53;;;9.33;72.40
24892;BME280;12954;50.688;10.908;2023-03-13T10:50:54;94231.69;;;9.46;72.44
24892;BME280;12954;50.688;10.908;2023-03-13T10:53:30;94236.91;;;9.74;70.81
24892;BME280;12954;50.688;10.908;2023-03-13T10:56:08;94240.53;;;9.69;71.24
24892;BME280;12954;50.688;10.908;2023-03-13T10:58:41;94210.81;;;9.52;71.05
24892;BME280;12954;50.688;10.908;2023-03-13T11:01:18;94225.28;;;9.87;69.54
24892;BME280;12954;50.688;10.908;2023-03-13T11:03:50;94233.97;;;9.84;69.74
24892;BME280;12954;50.688;10.908;2023-03-13T11:06:24;94238.31;;;9.93;69.48
24892;BME280;12954;50.688;10.908;2023-03-13T11:09:04;94220.66;;;10.10;68.53
24892;BME280;12954;50.688;10.908;2023-03-13T11:11:47;94183.41;;;10.03;68.55
24892;BME280;12954;50.688;10.908;2023-03-13T11:14:17;94196.59;;;9.60;69.31
24892;BME280;12954;50.688;10.908;2023-03-13T11:16:48;94175.31;;;9.72;69.46
24892;BME280;12954;50.688;10.908;2023-03-13T11:19:47;94229.69;;;10.36;67.08
24892;BME280;12954;50.688;10.908;2023-03-13T11:22:27;94234.47;;;10.17;67.99
24892;BME280;12954;50.688;10.908;2023-03-13T11:25:03;94234.09;;;10.32;67.57
24892;BME280;12954;50.688;10.908;2023-03-13T11:27:42;94236.84;;;10.18;68.15
24892;BME280;12954;50.688;10.908;2023-03-13T11:30:21;94244.03;;;10.23;68.33
24892;BME280;12954;50.688;10.908;2023-03-13T11:32:54;94241.16;;;10.19;67.93
24892;BME280;12954;50.688;10.908;2023-03-13T11:35:39;94222.09;;;10.16;67.44
24892;BME280;12954;50.688;10.908;2023-03-13T11:38:17;94209.91;;;10.18;66.65
24892;BME280;12954;50.688;10.908;2023-03-13T11:40:53;94226.72;;;10.24;67.14
24892;BME280;12954;50.688;10.908;2023-03-13T11:43:39;94205.97;;;10.24;67.15
24892;BME280;12954;50.688;10.908;2023-03-13T11:46:25;94224.19;;;10.19;67.61
24892;BME280;12954;50.688;10.908;2023-03-13T11:49:08;94221.94;;;10.12;67.92
24892;BME280;12954;50.688;10.908;2023-03-13T11:51:49;94209.28;;;10.21;68.15
24892;BME280;12954;50.688;10.908;2023-03-13T11:54:46;94172.94;;;10.10;67.25
24892;BME280;12954;50.688;10.908;2023-03-13T11:57:24;94205.53;;;10.31;67.67
24892;BME280;12954;50.688;10.908;2023-03-13T12:00:16;94197.69;;;10.43;67.37
24892;BME280;12954;50.688;10.908;2023-03-13T12:02:50;94193.16;;;10.30;67.11
24892;BME280;12954;50.688;10.908;2023-03-13T12:05:20;94205.94;;;10.16;67.97
24892;BME280;12954;50.688;10.908;2023-03-13T12:07:54;94204.06;;;10.25;67.64
24892;BME280;12954;50.688;10.908;2023-03-13T12:10:27;94188.09;;;10.28;67.42
24892;BME280;12954;50.688;10.908;2023-03-13T12:13:01;94170.91;;;10.16;67.53
24892;BME280;12954;50.688;10.908;2023-03-13T12:15:36;94159.50;;;10.19;67.53
24892;BME280;12954;50.688;10.908;2023-03-13T12:18:12;94184.88;;;10.18;68.08
24892;BME280;12954;50.688;10.908;2023-03-13T12:20:48;94164.09;;;10.18;68.14
24892;BME280;12954;50.688;10.908;2023-03-13T12:23:23;94161.44;;;10.27;67.97
24892;BME280;12954;50.688;10.908;2023-03-13T12:25:58;94155.56;;;10.25;68.15
24892;BME280;12954;50.688;10.908;2023-03-13T12:28:32;94163.81;;;10.20;68.23
24892;BME280;12954;50.688;10.908;2023-03-13T12:31:10;94181.25;;;10.22;68.27
24892;BME280;12954;50.688;10.908;2023-03-13T12:33:44;94133.47;;;10.06;67.89
24892;BME280;12954;50.688;10.908;2023-03-13T12:36:20;94158.69;;;10.49;66.91
24892;BME280;12954;50.688;10.908;2023-03-13T12:38:55;94127.97;;;10.19;67.89
24892;BME280;12954;50.688;10.908;2023-03-13T12:41:27;94151.44;;;10.19;68.02
24892;BME280;12954;50.688;10.908;2023-03-13T12:43:57;94090.31;;;9.88;67.69
24892;BME280;12954;50.688;10.908;2023-03-13T12:46:40;94092.34;;;10.31;67.24
24892;BME280;12954;50.688;10.908;2023-03-13T12:49:45;94144.41;;;10.40;67.20
24892;BME280;12954;50.688;10.908;2023-03-13T12:52:42;94130.13;;;10.39;67.02
24892;BME280;12954;50.688;10.908;2023-03-13T12:55:42;94124.03;;;10.25;67.53
24892;BME280;12954;50.688;10.908;2023-03-13T12:58:28;94142.06;;;10.16;68.13
24892;BME280;12954;50.688;10.908;2023-03-13T13:01:01;94123.22;;;10.25;68.00
24892;BME280;12954;50.688;10.908;2023-03-13T13:03:34;94104.53;;;10.28;67.18
24892;BME280;12954;50.688;10.908;2023-03-13T13:06:07;94142.66;;;10.35;67.55
24892;BME280;12954;50.688;10.908;2023-03-13T13:08:39;94085.53;;;10.33;66.69
24892;BME280;12954;50.688;10.908;2023-03-13T13:20:38;94105.56;;;10.58;67.67
24892;BME280;12954;50.688;10.908;2023-03-13T13:23:29;94090.50;;;10.66;66.76
24892;BME280;12954;50.688;10.908;2023-03-13T13:32:36;94028.16;;;10.41;66.35
24892;BME280;12954;50.688;10.908;2023-03-13T13:35:18;94072.25;;;10.63;66.53
24892;BME280;12954;50.688;10.908;2023-03-13T13:37:48;94088.13;;;10.64;66.50